Time;durP1;ratioP1;P1;durP2;ratioP2;P2;SDS_P1;SDS_P2;PMS_P1;PMS_P2;Temp;Humidity;BMP_temperature;BMP_pressure;BME280_temperature;BME280_humidity;BME280_pressure;Samples;Min_cycle;Max_cycle;Signal;HPM_P1;HPM_P2
2022/10/27 00:00:08;;;;;;;6.80;6.10;;;12.80;99.90;;;;;;6163074;23;20423;-80
2022/10/27 00:02:35;;;;;;;7.13;6.17;;;12.80;99.90;;;;;;6163535;23;20449;-81
2022/10/27 00:05:02;;;;;;;7.50;6.80;;;12.80;99.90;;;;;;6162678;23;20806;-81
2022/10/27 00:07:28;;;;;;;7.93;6.00;;;12.70;99.90;;;;;;6162660;23;20442;-80
2022/10/27 00:09:55;;;;;;;8.33;6.57;;;12.70;99.90;;;;;;6163021;23;20503;-81
2022/10/27 00:12:22;;;;;;;7.13;5.93;;;12.70;99.90;;;;;;6162673;23;20421;-80
2022/10/27 00:14:49;;;;;;;6.83;5.63;;;12.60;99.90;;;;;;6162813;23;20944;-81
2022/10/27 00:17:17;;;;;;;7.10;6.00;;;12.70;99.90;;;;;;6162629;23;20413;-81
2022/10/27 00:19:44;;;;;;;7.57;6.87;;;12.60;99.90;;;;;;6163060;23;20414;-80
2022/10/27 00:22:11;;;;;;;9.53;6.83;;;12.60;99.90;;;;;;6162578;23;20410;-80
2022/10/27 00:24:38;;;;;;;6.33;5.23;;;12.60;99.90;;;;;;6168778;23;20461;-81
2022/10/27 00:27:04;;;;;;;6.00;5.47;;;12.50;99.90;;;;;;6163806;23;20911;-81
2022/10/27 00:29:31;;;;;;;6.03;5.43;;;12.50;99.90;;;;;;6163179;23;20446;-81
2022/10/27 00:31:58;;;;;;;8.57;5.67;;;12.50;99.90;;;;;;6163184;23;20481;-81
2022/10/27 00:34:26;;;;;;;6.40;5.83;;;12.50;99.90;;;;;;6161996;23;20427;-81
2022/10/27 00:36:53;;;;;;;8.00;7.30;;;12.40;99.90;;;;;;6163492;23;20414;-81
2022/10/27 00:39:20;;;;;;;10.07;6.93;;;12.40;99.90;;;;;;6162403;23;20406;-81
2022/10/27 00:41:47;;;;;;;7.27;6.53;;;12.40;99.90;;;;;;6162209;23;20979;-80
2022/10/27 01:23:14;;;;;;;10.30;6.90;;;12.10;99.90;;;;;;6096010;23;20399;-80
2022/10/27 01:26:01;;;;;;;6.60;5.03;;;12.10;99.90;;;;;;6164346;23;20759;-80
2022/10/27 01:29:06;;;;;;;9.33;6.30;;;12.10;99.90;;;;;;6163384;23;20510;-80
2022/10/27 01:31:39;;;;;;;7.80;7.10;;;12.00;99.90;;;;;;6131857;23;20409;-80
2022/10/27 01:34:11;;;;;;;6.83;6.17;;;12.00;99.90;;;;;;6163842;23;20463;-80
2022/10/27 01:37:23;;;;;;;8.50;7.63;;;11.90;99.90;;;;;;6156468;23;20487;-85
2022/10/27 01:43:59;;;;;;;11.07;7.33;;;11.90;99.90;;;;;;5980292;24;20400;-85
2022/10/27 05:55:44;;;;;;;10.77;9.67;;;10.80;99.90;;;;;;5993214;23;20236;-85
2022/10/27 06:02:17;;;;;;;12.03;9.23;;;10.90;99.90;;;;;;5952580;24;20521;-87
2022/10/27 06:05:24;;;;;;;10.47;8.80;;;11.00;99.90;;;;;;5967083;23;20569;-86
2022/10/27 06:08:21;;;;;;;7.47;6.87;;;11.00;99.90;;;;;;6080831;23;20608;-88
2022/10/27 06:11:08;;;;;;;7.80;7.00;;;11.10;99.90;;;;;;6156889;23;20452;-88
2022/10/27 06:33:00;;;;;;;10.70;7.40;;;11.20;99.90;;;;;;6131647;23;20955;-84
2022/10/27 06:35:26;;;;;;;9.10;8.23;;;11.20;99.90;;;;;;6162465;23;20412;-84
2022/10/27 06:37:53;;;;;;;9.53;8.70;;;11.20;99.90;;;;;;6161254;23;20406;-84
2022/10/27 06:40:20;;;;;;;9.87;8.93;;;11.20;99.90;;;;;;6162643;23;20401;-84
2022/10/27 06:42:49;;;;;;;9.10;8.20;;;11.20;99.90;;;;;;6161338;23;20425;-83
2022/10/27 06:45:16;;;;;;;10.80;9.80;;;11.20;99.90;;;;;;6162198;23;20413;-83
2022/10/27 06:47:43;;;;;;;14.75;13.13;;;11.20;99.90;;;;;;6160856;23;20414;-84
2022/10/27 06:50:12;;;;;;;16.90;11.23;;;11.20;99.90;;;;;;6159575;23;20202;-84
2022/10/27 06:52:40;;;;;;;11.80;10.90;;;11.30;99.90;;;;;;6159496;23;20433;-83
2022/10/27 06:55:08;;;;;;;13.57;12.17;;;11.30;99.90;;;;;;6159444;23;20483;-84
2022/10/27 06:57:40;;;;;;;17.30;12.23;;;11.40;99.90;;;;;;6161032;23;20433;-83
2022/10/27 07:00:11;;;;;;;13.73;12.30;;;11.40;99.90;;;;;;6161482;23;20394;-83
2022/10/27 07:02:38;;;;;;;16.43;14.57;;;11.50;99.90;;;;;;6162477;23;20461;-84
2022/10/27 07:05:06;;;;;;;14.30;12.97;;;11.50;99.90;;;;;;6163802;23;20416;-82
2022/10/27 07:07:33;;;;;;;16.50;13.27;;;11.50;99.90;;;;;;6162846;23;20418;-82
2022/10/27 07:09:59;;;;;;;12.63;11.50;;;11.50;99.90;;;;;;6161856;23;20410;-82
2022/10/27 07:12:26;;;;;;;13.10;11.67;;;11.60;99.90;;;;;;6161527;23;20438;-82
2022/10/27 07:15:16;;;;;;;14.63;13.27;;;11.70;99.90;;;;;;6158430;23;20792;-84
2022/10/27 07:17:43;;;;;;;15.57;13.93;;;11.80;99.90;;;;;;6159669;23;20936;-84
2022/10/27 07:20:10;;;;;;;16.43;12.83;;;11.80;99.90;;;;;;6162536;23;20417;-84
2022/10/27 07:22:39;;;;;;;16.70;12.10;;;12.00;99.90;;;;;;6158227;23;20440;-84
2022/10/27 07:25:07;;;;;;;19.07;13.93;;;12.10;99.90;;;;;;6156930;23;20425;-83
2022/10/27 07:27:57;;;;;;;12.93;11.57;;;12.20;99.90;;;;;;6158144;23;20422;-83
2022/10/27 07:30:27;;;;;;;14.20;12.80;;;12.30;99.90;;;;;;6155267;23;20431;-84
2022/10/27 07:33:31;;;;;;;20.10;13.00;;;12.40;99.90;;;;;;6153072;23;20659;-82
2022/10/27 07:39:34;;;;;;;17.13;14.70;;;12.70;99.90;;;;;;6088805;23;20406;-82
2022/10/27 07:49:32;;;;;;;14.23;11.63;;;13.20;99.90;;;;;;5977337;23;20408;-82
2022/10/27 07:51:58;;;;;;;14.33;10.50;;;13.30;99.90;;;;;;6038672;23;20457;-82
2022/10/27 07:54:25;;;;;;;12.03;10.80;;;13.40;99.90;;;;;;6155402;23;20391;-82
2022/10/27 07:56:52;;;;;;;14.23;12.10;;;13.50;99.90;;;;;;6154238;23;20469;-82
2022/10/27 07:59:25;;;;;;;17.43;12.23;;;13.60;99.90;;;;;;6155205;23;20410;-81
2022/10/27 08:02:18;;;;;;;15.20;12.70;;;13.70;99.90;;;;;;6155001;23;20427;-81
2022/10/27 08:04:46;;;;;;;12.03;10.83;;;13.80;99.90;;;;;;6155149;23;20404;-82
2022/10/27 08:10:49;;;;;;;12.67;10.63;;;14.10;99.90;;;;;;6036354;23;20482;-82
2022/10/27 08:16:37;;;;;;;13.30;10.20;;;14.30;99.90;;;;;;6166755;23;20372;-81
2022/10/27 08:19:04;;;;;;;10.37;9.23;;;14.40;99.90;;;;;;6156491;23;20413;-81
2022/10/27 08:21:32;;;;;;;13.70;8.97;;;14.50;99.90;;;;;;6155437;23;20430;-82
2022/10/27 08:23:59;;;;;;;9.23;7.80;;;14.60;99.90;;;;;;6157955;23;20421;-82
2022/10/27 08:26:25;;;;;;;10.30;7.57;;;14.60;99.90;;;;;;6154998;23;20474;-83
2022/10/27 08:28:52;;;;;;;8.87;6.73;;;14.70;99.90;;;;;;6155083;23;20410;-82
2022/10/27 08:46:26;;;;;;;10.53;6.17;;;15.40;99.90;;;;;;6150765;23;20450;-82
2022/10/27 08:49:19;;;;;;;5.90;4.60;;;15.50;99.90;;;;;;6155108;23;20398;-82
2022/10/27 08:57:19;;;;;;;6.20;5.03;;;15.70;99.90;;;;;;6153776;23;20458;-82
2022/10/27 09:03:36;;;;;;;7.63;4.20;;;15.90;99.90;;;;;;6111220;23;20426;-83
2022/10/27 09:06:10;;;;;;;5.60;4.00;;;16.10;99.90;;;;;;6159622;23;20392;-81
2022/10/27 09:08:43;;;;;;;5.30;4.80;;;16.20;99.90;;;;;;6158368;23;20864;-83
2022/10/27 09:17:48;;;;;;;5.10;4.20;;;16.60;99.90;;;;;;6130422;23;20350;-83
2022/10/27 09:23:55;;;;;;;8.00;4.23;;;16.80;99.90;;;;;;5873543;24;20405;-83
2022/10/27 09:26:52;;;;;;;6.63;3.93;;;17.00;99.90;;;;;;5950469;24;20431;-86
2022/10/27 09:44:20;;;;;;;4.63;4.20;;;17.70;99.90;;;;;;5832708;24;20416;-82
2022/10/27 09:46:51;;;;;;;5.37;3.37;;;17.90;99.90;;;;;;5929476;24;20447;-82
2022/10/27 09:49:19;;;;;;;4.33;3.93;;;18.10;99.90;;;;;;5988101;23;20464;-84
2022/10/27 09:51:52;;;;;;;3.70;3.40;;;18.20;99.90;;;;;;6093238;23;20966;-84
2022/10/27 09:54:31;;;;;;;4.53;3.50;;;18.40;99.90;;;;;;6100198;23;20397;-84
2022/10/27 09:57:07;;;;;;;4.20;3.80;;;18.60;99.90;;;;;;6105231;23;20704;-85
2022/10/27 10:12:22;;;;;;;7.30;4.70;;;19.50;99.90;;;;;;6131400;23;20470;-84
2022/10/27 10:14:49;;;;;;;3.70;3.40;;;19.70;99.90;;;;;;6131779;23;20438;-82
2022/10/27 10:17:22;;;;;;;6.97;2.90;;;19.80;99.90;;;;;;6128266;23;20422;-82
2022/10/27 10:19:50;;;;;;;6.87;3.03;;;19.90;99.90;;;;;;6128459;23;20449;-81
2022/10/27 10:22:23;;;;;;;4.93;3.50;;;20.00;99.90;;;;;;6127735;23;20759;-82
2022/10/27 10:24:51;;;;;;;3.90;3.53;;;20.10;99.90;;;;;;6127629;23;20410;-81
2022/10/27 10:27:26;;;;;;;6.10;4.90;;;20.30;99.90;;;;;;6126890;23;20773;-82
2022/10/27 10:29:54;;;;;;;3.50;2.90;;;20.50;99.90;;;;;;6132084;23;20461;-83
2022/10/27 10:32:23;;;;;;;3.73;2.60;;;20.60;99.90;;;;;;6133606;23;20447;-83
2022/10/27 10:34:52;;;;;;;3.80;3.40;;;20.70;99.90;;;;;;6130470;23;20418;-83
2022/10/27 10:37:34;;;;;;;5.73;2.80;;;20.90;99.90;;;;;;6133367;23;20534;-84
2022/10/27 10:40:26;;;;;;;3.60;3.30;;;21.40;99.90;;;;;;6131726;23;20404;-81
2022/10/27 10:43:11;;;;;;;4.70;2.97;;;22.10;99.90;;;;;;6131546;23;20430;-82
2022/10/27 10:45:39;;;;;;;2.97;2.77;;;23.00;99.20;;;;;;6128280;23;20433;-79
2022/10/27 10:48:15;;;;;;;2.70;2.50;;;23.80;97.90;;;;;;6127310;23;20422;-79
2022/10/27 10:50:46;;;;;;;6.73;4.03;;;24.60;95.40;;;;;;6127919;23;20392;-78
2022/10/27 10:53:23;;;;;;;2.97;2.67;;;25.20;93.20;;;;;;6126998;23;20432;-78
2022/10/27 10:55:51;;;;;;;3.13;2.87;;;25.60;91.50;;;;;;6128577;23;20396;-78
2022/10/27 10:58:21;;;;;;;11.60;6.30;;;25.70;91.30;;;;;;6127777;23;20408;-78
2022/10/27 11:00:56;;;;;;;12.50;9.93;;;26.20;90.60;;;;;;6128895;23;20419;-80
2022/10/27 11:03:24;;;;;;;8.40;6.97;;;26.50;90.30;;;;;;6127547;23;20731;-78
2022/10/27 11:05:57;;;;;;;4.40;4.00;;;27.00;87.40;;;;;;6127883;23;20415;-78
2022/10/27 11:08:27;;;;;;;8.77;5.90;;;27.30;83.70;;;;;;6127038;23;20425;-80
2022/10/27 11:10:56;;;;;;;7.80;4.60;;;27.60;83.20;;;;;;6127524;23;20439;-79
2022/10/27 11:13:29;;;;;;;5.00;3.30;;;28.00;85.20;;;;;;6127734;23;20772;-81
2022/10/27 11:16:00;;;;;;;5.10;3.60;;;28.60;84.60;;;;;;6127803;23;20397;-79
2022/10/27 11:18:29;;;;;;;6.20;3.83;;;29.20;82.30;;;;;;6127609;23;20393;-80
2022/10/27 11:21:00;;;;;;;4.60;3.63;;;29.70;79.20;;;;;;6127687;23;20412;-79
2022/10/27 11:23:32;;;;;;;5.23;4.03;;;30.10;76.10;;;;;;6128256;23;20431;-81
2022/10/27 11:26:02;;;;;;;5.10;4.60;;;30.60;75.00;;;;;;6127459;23;20883;-78
2022/10/27 11:28:36;;;;;;;5.40;2.70;;;30.80;69.40;;;;;;6128081;23;20392;-78
2022/10/27 11:31:09;;;;;;;5.87;4.80;;;30.90;67.00;;;;;;6127795;23;20712;-80
2022/10/27 11:33:44;;;;;;;7.13;3.90;;;31.10;69.50;;;;;;6127663;23;20720;-80
2022/10/27 11:36:16;;;;;;;6.87;3.90;;;31.40;69.40;;;;;;6127678;23;20406;-80
2022/10/27 11:38:54;;;;;;;4.53;3.10;;;31.80;68.30;;;;;;6127008;23;20401;-80
2022/10/27 11:41:28;;;;;;;6.53;3.70;;;32.20;66.70;;;;;;6127963;23;20391;-81
2022/10/27 11:44:04;;;;;;;5.40;3.20;;;32.70;63.90;;;;;;6127530;23;20399;-79
2022/10/27 11:46:37;;;;;;;3.87;3.23;;;33.10;62.60;;;;;;6127552;23;20802;-79
2022/10/27 11:49:10;;;;;;;3.30;3.00;;;33.30;61.10;;;;;;6126914;23;20400;-79
2022/10/27 11:51:44;;;;;;;4.43;2.83;;;33.50;59.10;;;;;;6126833;23;20451;-81
2022/10/27 11:54:11;;;;;;;7.30;3.33;;;33.70;59.60;;;;;;6128772;23;20759;-81
2022/10/27 11:56:51;;;;;;;3.83;2.70;;;34.00;58.10;;;;;;6127998;23;20735;-79
2022/10/27 11:59:27;;;;;;;5.27;3.47;;;34.40;58.00;;;;;;6126545;23;20392;-78
2022/10/27 12:02:14;;;;;;;3.30;3.00;;;34.80;55.90;;;;;;6126742;23;20430;-81
2022/10/27 12:04:50;;;;;;;6.20;3.17;;;34.90;54.50;;;;;;6128279;23;20405;-80
2022/10/27 12:07:31;;;;;;;7.10;2.87;;;34.80;53.30;;;;;;6127453;23;20422;-80
2022/10/27 12:10:13;;;;;;;6.57;3.50;;;34.70;53.80;;;;;;6129775;23;20399;-82
2022/10/27 12:12:46;;;;;;;5.83;3.50;;;34.80;54.40;;;;;;6129237;23;20451;-81
2022/10/27 12:15:20;;;;;;;4.20;2.93;;;35.10;53.70;;;;;;6129184;23;20396;-82
2022/10/27 12:17:53;;;;;;;5.53;3.00;;;35.40;53.10;;;;;;6128729;23;20388;-80
2022/10/27 12:20:26;;;;;;;7.70;3.30;;;35.70;52.90;;;;;;6128798;23;20402;-80
2022/10/27 12:23:00;;;;;;;3.30;3.00;;;36.20;52.30;;;;;;6128341;23;20423;-80
2022/10/27 12:25:33;;;;;;;3.47;3.17;;;36.30;51.00;;;;;;6126849;23;20479;-81
2022/10/27 12:28:03;;;;;;;6.90;3.10;;;36.40;49.80;;;;;;6127252;23;20923;-82
2022/10/27 12:30:32;;;;;;;6.60;3.50;;;36.60;50.50;;;;;;6126639;23;20702;-80
2022/10/27 12:33:04;;;;;;;4.77;3.50;;;36.60;49.60;;;;;;6126259;23;20455;-81
2022/10/27 12:35:38;;;;;;;5.07;3.40;;;36.70;49.30;;;;;;6125926;23;20404;-80
2022/10/27 12:38:12;;;;;;;11.00;3.73;;;36.80;48.70;;;;;;6128501;23;20396;-80
2022/10/27 12:40:49;;;;;;;6.33;3.43;;;37.20;48.60;;;;;;6129362;23;20391;-79
2022/10/27 12:43:24;;;;;;;3.17;2.80;;;37.50;48.20;;;;;;6128338;23;20639;-82
2022/10/27 12:46:08;;;;;;;7.10;3.00;;;37.70;47.30;;;;;;6127875;23;20399;-80
2022/10/27 12:48:42;;;;;;;6.57;2.60;;;38.00;46.80;;;;;;6133856;23;20398;-80
2022/10/27 12:51:16;;;;;;;4.47;2.80;;;38.00;45.80;;;;;;6136093;23;20396;-80
2022/10/27 12:53:47;;;;;;;5.43;3.10;;;37.80;45.20;;;;;;6134477;23;20395;-80
2022/10/27 12:56:28;;;;;;;4.37;2.80;;;37.70;45.90;;;;;;6134992;23;20415;-80
2022/10/27 12:59:03;;;;;;;5.17;3.43;;;37.80;45.60;;;;;;6134928;23;20395;-79
2022/10/27 13:01:39;;;;;;;5.30;2.70;;;37.60;44.90;;;;;;6133967;23;20429;-79
2022/10/27 13:04:39;;;;;;;2.90;2.53;;;37.70;45.30;;;;;;6133308;23;20396;-80
2022/10/27 13:07:35;;;;;;;3.90;3.23;;;37.60;44.30;;;;;;6124889;23;20911;-84
2022/10/27 13:10:21;;;;;;;4.93;3.33;;;37.00;43.00;;;;;;6130411;23;20416;-81
2022/10/27 13:20:13;;;;;;;3.70;2.17;;;35.70;44.80;;;;;;6137615;23;20420;-84
2022/10/27 13:22:59;;;;;;;5.87;2.83;;;35.60;45.80;;;;;;6132496;23;20489;-83
2022/10/27 13:25:32;;;;;;;4.40;2.93;;;35.70;46.20;;;;;;6131830;23;20953;-79
2022/10/27 13:28:06;;;;;;;10.97;3.70;;;35.70;45.90;;;;;;6130495;23;20396;-79
2022/10/27 13:30:41;;;;;;;5.43;2.80;;;35.90;45.80;;;;;;6127595;23;20483;-84
2022/10/27 13:33:37;;;;;;;4.50;3.50;;;35.90;46.40;;;;;;6128715;23;20494;-84
2022/10/27 13:36:17;;;;;;;6.40;3.40;;;36.00;46.30;;;;;;6133467;23;20379;-82
2022/10/27 13:38:44;;;;;;;6.37;2.80;;;36.10;46.40;;;;;;6133379;23;20403;-85
2022/10/27 13:41:11;;;;;;;5.13;2.80;;;36.20;45.80;;;;;;6146392;23;20404;-84
2022/10/27 13:43:46;;;;;;;5.73;3.13;;;36.00;45.80;;;;;;6131485;23;20462;-83
2022/10/27 13:46:13;;;;;;;5.07;2.87;;;36.10;45.70;;;;;;6127292;23;20713;-85
2022/10/27 13:48:48;;;;;;;4.33;2.67;;;36.40;45.80;;;;;;6128366;23;20399;-84
2022/10/27 13:51:38;;;;;;;4.93;2.83;;;36.50;45.40;;;;;;6129748;23;20401;-81
2022/10/27 13:54:38;;;;;;;4.47;2.80;;;36.50;45.10;;;;;;6131162;23;20755;-82
2022/10/27 13:57:43;;;;;;;4.90;3.07;;;36.50;45.20;;;;;;6129903;23;20404;-83
2022/10/27 14:00:13;;;;;;;6.80;3.30;;;36.50;45.00;;;;;;6131403;23;20803;-83
2022/10/27 14:02:52;;;;;;;4.60;3.50;;;36.30;45.30;;;;;;6132968;23;20454;-84
2022/10/27 14:05:28;;;;;;;3.13;2.83;;;36.00;45.30;;;;;;6133425;23;20384;-83
2022/10/27 14:07:55;;;;;;;3.80;2.60;;;35.50;45.40;;;;;;6131970;23;20425;-80
2022/10/27 14:10:22;;;;;;;3.53;3.23;;;35.40;46.00;;;;;;6131433;23;20413;-81
2022/10/27 14:33:25;;;;;;;3.33;3.03;;;33.10;52.30;;;;;;6008210;23;20446;-85
2022/10/27 14:42:48;;;;;;;5.27;4.47;;;31.70;54.90;;;;;;6021458;23;20507;-87
2022/10/27 14:45:27;;;;;;;7.67;5.73;;;31.10;55.30;;;;;;6098580;23;20393;-85
2022/10/27 14:48:28;;;;;;;4.03;3.20;;;30.70;56.40;;;;;;6097798;23;20411;-87
2022/10/27 15:07:56;;;;;;;6.97;3.77;;;27.60;65.00;;;;;;6099511;23;20718;-85
2022/10/27 15:14:01;;;;;;;4.40;4.00;;;26.50;69.10;;;;;;6061233;23;20389;-85
2022/10/27 15:16:32;;;;;;;5.63;4.30;;;26.10;71.00;;;;;;6101958;23;20409;-83
2022/10/27 15:18:59;;;;;;;4.43;3.87;;;25.70;72.30;;;;;;6101591;23;20799;-82
2022/10/27 15:35:50;;;;;;;3.87;3.43;;;24.40;82.50;;;;;;5967359;24;20412;-86
2022/10/27 16:02:34;;;;;;;6.53;4.30;;;22.70;93.80;;;;;;6154801;23;20501;-83
2022/10/27 16:05:34;;;;;;;3.97;3.57;;;22.60;94.20;;;;;;6158373;23;20413;-86
2022/10/27 16:08:40;;;;;;;4.67;3.57;;;22.40;94.40;;;;;;6159672;23;20750;-86
2022/10/27 16:11:44;;;;;;;5.20;3.60;;;22.20;95.00;;;;;;6158491;23;20797;-86
2022/10/27 16:14:15;;;;;;;6.70;3.90;;;22.00;95.30;;;;;;6159255;23;20422;-86
2022/10/27 16:16:42;;;;;;;7.33;3.73;;;21.70;95.70;;;;;;6159449;23;20395;-86
2022/10/27 18:01:20;;;;;;;6.47;4.73;;;18.10;99.90;;;;;;6156406;23;20390;-88
2022/10/27 19:07:02;;;;;;;10.23;4.37;;;17.90;99.90;;;;;;6073591;23;20511;-83
2022/10/27 19:09:29;;;;;;;5.70;5.20;;;17.90;99.90;;;;;;6074319;23;20507;-84
2022/10/27 19:11:55;;;;;;;7.83;4.23;;;17.80;99.90;;;;;;6071637;23;20414;-84
2022/10/27 19:14:22;;;;;;;5.83;3.70;;;17.80;99.90;;;;;;6071435;23;20419;-84
2022/10/27 19:16:49;;;;;;;4.90;3.70;;;17.80;99.90;;;;;;6072763;23;20437;-84
2022/10/27 19:19:15;;;;;;;6.27;4.73;;;17.70;99.90;;;;;;6070951;23;20416;-83
2022/10/27 19:21:42;;;;;;;5.50;3.53;;;17.70;99.90;;;;;;6071484;23;20412;-84
2022/10/27 19:24:12;;;;;;;4.50;3.40;;;17.60;99.90;;;;;;6072535;23;20783;-83
2022/10/27 19:26:39;;;;;;;4.80;4.23;;;17.60;99.90;;;;;;6073032;23;20448;-83
2022/10/27 19:29:05;;;;;;;8.60;5.90;;;17.60;99.90;;;;;;6071821;23;20413;-82
2022/10/27 19:31:37;;;;;;;8.13;4.10;;;17.50;99.90;;;;;;6072696;23;20910;-84
2022/10/27 19:34:07;;;;;;;4.43;4.03;;;17.50;99.90;;;;;;6072535;23;20405;-84
2022/10/27 19:36:34;;;;;;;4.77;3.90;;;17.60;99.90;;;;;;6072184;23;20440;-82
2022/10/27 19:39:04;;;;;;;4.47;3.63;;;17.50;99.90;;;;;;6071967;23;20451;-82
2022/10/27 19:41:34;;;;;;;6.63;4.70;;;17.50;99.90;;;;;;6072173;23;20422;-81
2022/10/27 19:44:01;;;;;;;4.53;4.13;;;17.50;99.90;;;;;;6072010;23;20436;-81
2022/10/27 19:46:30;;;;;;;8.53;4.00;;;17.40;99.90;;;;;;6080362;23;20439;-81
2022/10/27 19:48:58;;;;;;;6.50;3.97;;;17.30;99.90;;;;;;6071453;23;20460;-81
2022/10/27 19:51:26;;;;;;;5.17;3.63;;;17.20;99.90;;;;;;6071017;23;20416;-81
2022/10/27 19:53:55;;;;;;;5.77;4.37;;;17.20;99.90;;;;;;6071782;23;20412;-81
2022/10/27 19:56:22;;;;;;;5.80;3.67;;;17.20;99.90;;;;;;6071439;23;20444;-81
2022/10/27 19:58:51;;;;;;;7.50;4.30;;;17.10;99.90;;;;;;6071395;23;20912;-81
2022/10/27 20:01:20;;;;;;;6.07;4.33;;;17.10;99.90;;;;;;6070391;23;20900;-82
2022/10/27 20:03:47;;;;;;;4.20;3.70;;;17.00;99.90;;;;;;6070883;23;20409;-81
2022/10/27 20:06:14;;;;;;;6.27;4.10;;;17.00;99.90;;;;;;6079248;23;20438;-82
2022/10/27 20:08:43;;;;;;;5.60;4.00;;;17.00;99.90;;;;;;6099029;23;20723;-81
2022/10/27 20:11:13;;;;;;;6.03;5.10;;;16.90;99.90;;;;;;6099987;23;20414;-81
2022/10/27 20:13:44;;;;;;;4.50;4.20;;;16.90;99.90;;;;;;6099600;23;20447;-81
2022/10/27 20:16:14;;;;;;;4.40;3.70;;;16.80;99.90;;;;;;6099649;23;20487;-81
2022/10/27 20:18:40;;;;;;;7.40;4.20;;;16.80;99.90;;;;;;6099704;23;20422;-81
2022/10/27 20:21:07;;;;;;;7.13;3.93;;;16.80;99.90;;;;;;6100022;23;20412;-81
2022/10/27 20:23:34;;;;;;;5.27;4.30;;;16.80;99.90;;;;;;6100274;23;20436;-81
2022/10/27 20:26:03;;;;;;;9.67;4.10;;;16.80;99.90;;;;;;6100691;23;20425;-81
2022/10/27 20:28:30;;;;;;;6.87;4.67;;;16.80;99.90;;;;;;6099499;23;20421;-81
2022/10/27 20:30:58;;;;;;;5.63;4.03;;;16.80;99.90;;;;;;6099718;23;20420;-81
2022/10/27 20:33:26;;;;;;;5.37;4.87;;;16.80;99.90;;;;;;6099940;23;20457;-81
2022/10/27 20:35:58;;;;;;;6.17;4.67;;;16.80;99.90;;;;;;6099561;23;20441;-81
2022/10/27 20:38:25;;;;;;;4.10;3.80;;;16.80;99.90;;;;;;6099608;23;20402;-81
2022/10/27 20:40:52;;;;;;;3.50;3.20;;;16.80;99.90;;;;;;6105928;23;20454;-81
2022/10/27 20:43:19;;;;;;;4.07;3.60;;;16.70;99.90;;;;;;6106015;23;20413;-81
2022/10/27 20:45:52;;;;;;;5.63;3.97;;;16.70;99.90;;;;;;6101412;23;20769;-81
2022/10/27 20:48:19;;;;;;;4.50;4.10;;;16.80;99.90;;;;;;6100843;23;20583;-81
2022/10/27 20:50:56;;;;;;;6.83;6.17;;;16.80;99.90;;;;;;6101280;23;20416;-81
2022/10/27 20:53:23;;;;;;;8.87;4.53;;;16.70;99.90;;;;;;6101204;23;20442;-81
2022/10/27 20:55:50;;;;;;;6.83;4.27;;;16.70;99.90;;;;;;6100995;23;20437;-81
2022/10/27 20:58:18;;;;;;;4.57;3.90;;;16.70;99.90;;;;;;6100001;23;20414;-81
2022/10/27 21:00:44;;;;;;;4.57;3.83;;;16.70;99.90;;;;;;6100515;23;20414;-81
2022/10/27 21:03:11;;;;;;;7.20;4.90;;;16.70;99.90;;;;;;6101431;23;20741;-82
2022/10/27 21:05:38;;;;;;;7.27;5.10;;;16.70;99.90;;;;;;6101155;23;20420;-82
2022/10/27 21:08:06;;;;;;;5.30;4.63;;;16.70;99.90;;;;;;6101210;23;20475;-82
2022/10/27 21:10:40;;;;;;;6.57;4.10;;;16.70;99.90;;;;;;6102150;23;20418;-81
2022/10/27 21:13:07;;;;;;;4.53;4.13;;;16.70;99.90;;;;;;6103658;23;20438;-82
2022/10/27 21:15:33;;;;;;;4.50;4.10;;;16.60;99.90;;;;;;6103332;23;20412;-82
2022/10/27 21:18:00;;;;;;;5.47;3.30;;;16.60;99.90;;;;;;6102607;23;20939;-82
2022/10/27 21:20:27;;;;;;;4.40;3.90;;;16.70;99.90;;;;;;6102654;23;20434;-84
2022/10/27 21:22:54;;;;;;;5.10;3.60;;;16.70;99.90;;;;;;6105362;23;20417;-84
2022/10/27 21:25:22;;;;;;;4.83;4.33;;;16.70;99.90;;;;;;6105539;23;20445;-84
2022/10/27 21:27:51;;;;;;;4.40;3.60;;;16.70;99.90;;;;;;6105730;23;20763;-83
2022/10/27 21:30:18;;;;;;;5.93;3.97;;;16.70;99.90;;;;;;6104803;23;20410;-84
2022/10/27 21:32:45;;;;;;;4.40;3.97;;;16.70;99.90;;;;;;6106161;23;20406;-85
2022/10/27 21:35:12;;;;;;;4.73;3.77;;;16.70;99.90;;;;;;6106303;23;20453;-85
2022/10/27 21:37:38;;;;;;;4.77;3.87;;;16.80;99.90;;;;;;6114247;23;20550;-80
2022/10/27 21:40:06;;;;;;;9.50;5.17;;;16.80;99.90;;;;;;6103524;23;20411;-83
2022/10/27 21:42:34;;;;;;;4.63;3.70;;;16.80;99.90;;;;;;6104682;23;20906;-85
2022/10/27 21:45:01;;;;;;;5.60;3.30;;;16.90;99.90;;;;;;6103765;23;20743;-84
2022/10/27 21:47:28;;;;;;;5.17;4.60;;;16.80;99.90;;;;;;6109711;23;20432;-82
2022/10/27 21:49:55;;;;;;;5.37;4.87;;;16.80;99.90;;;;;;6116431;23;20421;-81
2022/10/27 21:52:21;;;;;;;6.13;4.27;;;16.70;99.90;;;;;;6116452;23;20417;-81
2022/10/27 21:54:48;;;;;;;4.73;3.70;;;16.70;99.90;;;;;;6116288;23;20441;-81
2022/10/27 21:57:15;;;;;;;9.23;4.00;;;16.70;99.90;;;;;;6116336;23;20430;-81
2022/10/27 21:59:43;;;;;;;5.60;4.40;;;16.70;99.90;;;;;;6113851;23;20522;-81
2022/10/27 22:02:10;;;;;;;4.30;4.00;;;16.70;99.90;;;;;;6107970;23;20478;-81
2022/10/27 22:04:36;;;;;;;5.37;4.03;;;16.60;99.90;;;;;;6113095;23;20411;-82
2022/10/27 22:07:06;;;;;;;8.87;4.67;;;16.60;99.90;;;;;;6111033;23;20463;-84
2022/10/27 22:09:33;;;;;;;4.10;3.80;;;16.60;99.90;;;;;;6113379;23;20420;-81
2022/10/27 22:11:59;;;;;;;11.93;4.30;;;16.60;99.90;;;;;;6113105;23;20478;-81
2022/10/27 22:14:27;;;;;;;5.20;4.20;;;16.60;99.90;;;;;;6114195;23;20514;-82
2022/10/27 22:16:55;;;;;;;7.80;4.00;;;16.60;99.90;;;;;;6113234;23;20438;-82
2022/10/27 22:19:22;;;;;;;6.53;4.20;;;16.50;99.90;;;;;;6113887;23;20921;-81
2022/10/27 22:21:49;;;;;;;5.03;4.10;;;16.50;99.90;;;;;;6114592;23;20416;-82
2022/10/27 22:24:16;;;;;;;6.43;3.70;;;16.40;99.90;;;;;;6114920;23;20445;-81
2022/10/27 22:26:43;;;;;;;7.73;4.33;;;16.30;99.90;;;;;;6113696;23;20429;-81
2022/10/27 22:29:10;;;;;;;4.83;4.00;;;16.30;99.90;;;;;;6114098;23;20419;-81
2022/10/27 22:31:37;;;;;;;4.07;3.30;;;16.30;99.90;;;;;;6115657;23;20415;-81
2022/10/27 22:34:05;;;;;;;5.30;3.60;;;16.40;99.90;;;;;;6113404;23;20442;-82
2022/10/27 22:36:33;;;;;;;4.93;3.80;;;16.30;99.90;;;;;;6114150;23;20433;-82
2022/10/27 22:39:02;;;;;;;8.33;4.90;;;16.40;99.90;;;;;;6114255;23;20491;-81
2022/10/27 22:41:29;;;;;;;5.20;4.30;;;16.50;99.90;;;;;;6114603;23;20409;-81
2022/10/27 22:43:57;;;;;;;3.87;3.50;;;16.50;99.90;;;;;;6114203;23;20409;-82
2022/10/27 22:46:25;;;;;;;5.30;4.33;;;16.50;99.90;;;;;;6114218;23;20435;-81
2022/10/27 22:48:52;;;;;;;6.63;3.80;;;16.50;99.90;;;;;;6113370;23;20421;-81
2022/10/27 22:51:22;;;;;;;5.80;4.17;;;16.50;99.90;;;;;;6114733;23;20413;-82
2022/10/27 22:53:49;;;;;;;4.50;3.67;;;16.60;99.90;;;;;;6113811;23;20508;-82
2022/10/27 22:56:18;;;;;;;6.37;4.30;;;16.60;99.90;;;;;;6114303;23;20439;-82
2022/10/27 22:58:47;;;;;;;6.63;4.70;;;16.60;99.90;;;;;;6114272;23;20414;-82
2022/10/27 23:01:17;;;;;;;5.07;3.80;;;16.50;99.90;;;;;;6114669;23;20432;-82
2022/10/27 23:03:44;;;;;;;4.10;3.50;;;16.50;99.90;;;;;;6114962;23;20898;-82
2022/10/27 23:06:11;;;;;;;5.40;4.27;;;16.50;99.90;;;;;;6114464;23;20851;-82
2022/10/27 23:08:39;;;;;;;5.80;4.27;;;16.40;99.90;;;;;;6113577;23;20416;-82
2022/10/27 23:11:07;;;;;;;5.77;4.37;;;16.40;99.90;;;;;;6114125;23;20485;-81
2022/10/27 23:13:37;;;;;;;6.93;4.60;;;16.30;99.90;;;;;;6114366;23;20410;-82
2022/10/27 23:16:06;;;;;;;9.50;4.80;;;16.20;99.90;;;;;;6115022;23;20556;-82
2022/10/27 23:18:33;;;;;;;4.70;4.20;;;16.20;99.90;;;;;;6114764;23;20406;-82
2022/10/27 23:21:02;;;;;;;6.93;4.87;;;16.00;99.90;;;;;;6114410;23;20417;-82
2022/10/27 23:23:30;;;;;;;5.30;4.30;;;16.00;99.90;;;;;;6115071;23;20423;-82
2022/10/27 23:25:58;;;;;;;5.90;5.00;;;15.90;99.90;;;;;;6115402;23;20436;-82
2022/10/27 23:28:26;;;;;;;4.67;4.20;;;15.90;99.90;;;;;;6114629;23;20482;-82
2022/10/27 23:30:52;;;;;;;4.60;4.17;;;15.90;99.90;;;;;;6113745;23;20496;-81
2022/10/27 23:33:19;;;;;;;8.53;5.57;;;15.80;99.90;;;;;;6114504;23;20409;-82
2022/10/27 23:35:56;;;;;;;5.87;5.30;;;15.80;99.90;;;;;;6113824;23;20452;-82
2022/10/27 23:38:23;;;;;;;6.63;5.17;;;15.60;99.90;;;;;;6114200;23;20456;-82
2022/10/27 23:40:50;;;;;;;7.40;4.80;;;15.60;99.90;;;;;;6114793;23;20405;-82
2022/10/27 23:43:18;;;;;;;6.87;4.63;;;15.50;99.90;;;;;;6114807;23;20415;-81
2022/10/27 23:45:45;;;;;;;5.80;5.07;;;15.50;99.90;;;;;;6114138;23;20424;-82
2022/10/27 23:48:13;;;;;;;5.97;4.80;;;15.50;99.90;;;;;;6114321;23;20923;-82
2022/10/27 23:50:40;;;;;;;6.67;5.63;;;15.50;99.90;;;;;;6114377;23;20404;-82
2022/10/27 23:53:06;;;;;;;8.90;4.70;;;15.50;99.90;;;;;;6113845;23;20417;-82
2022/10/27 23:55:33;;;;;;;10.63;4.67;;;15.40;99.90;;;;;;6114352;23;20450;-82
2022/10/27 23:58:00;;;;;;;8.53;4.03;;;15.50;99.90;;;;;;6114098;23;20419;-82
